Terminal Aerodrome Forecast
Issued by NWS Lake Charles, LA

Home | Current Version | Previous Version | Text Only | Print | Product List | Glossary On
Versions: 1 2 3 4 5 6 7 8 9 10 11 12 13 14 15 16 17 18 19 20 21 22 23 24 25 26 27 28
000
FTUS44 KLCH 201120
TAFARA
TAF
KARA 201120Z 2012/2112 13008KT P6SM BKN012 OVC025
      TEMPO 2012/2016 4SM BR OVC008
     FM201600 13015G23KT P6SM VCSH OVC015
     FM210000 13010KT 3SM TSRA OVC015CB
     FM210600 VRB05KT 3SM SHRA VCTS OVC008CB=

USA.gov is the U.S. government's official web portal to all federal, state and local government web resources and services.